Time;durP1;ratioP1;P1;durP2;ratioP2;P2;SDS_P1;SDS_P2;PMS_P1;PMS_P2;Temp;Humidity;BMP_temperature;BMP_pressure;BME280_temperature;BME280_humidity;BME280_pressure;Samples;Min_cycle;Max_cycle;Signal;HPM_P1;HPM_P2
2022/07/01 00:01:41;;;;;;;6.10;1.50;;;13.40;99.90;;;;;;5063520;28;20029;-68
2022/07/01 00:04:07;;;;;;;13.15;2.03;;;13.30;99.90;;;;;;5060843;28;20078;-68
2022/07/01 00:06:33;;;;;;;11.32;2.25;;;13.40;99.90;;;;;;5057833;28;20111;-68
2022/07/01 00:08:59;;;;;;;7.45;1.92;;;13.30;99.90;;;;;;5048541;28;20544;-68
2022/07/01 00:11:24;;;;;;;6.90;1.60;;;13.30;99.90;;;;;;5040870;28;20029;-68
2022/07/01 00:13:50;;;;;;;7.93;1.75;;;13.30;99.90;;;;;;5036783;28;20021;-67
2022/07/01 00:16:16;;;;;;;9.40;1.85;;;13.30;99.90;;;;;;5037873;28;20059;-68
2022/07/01 00:18:42;;;;;;;9.52;1.95;;;13.30;99.90;;;;;;5039787;28;20036;-68
2022/07/01 00:21:07;;;;;;;9.32;1.73;;;13.30;99.90;;;;;;5054118;28;20465;-68
2022/07/01 00:23:33;;;;;;;7.40;1.60;;;13.30;99.90;;;;;;5034971;28;20033;-68
2022/07/01 00:25:59;;;;;;;9.10;1.73;;;13.40;99.90;;;;;;5045503;28;20116;-68
2022/07/01 00:28:25;;;;;;;6.65;1.50;;;13.40;99.90;;;;;;5038328;28;20040;-68
2022/07/01 00:30:51;;;;;;;7.15;1.45;;;13.40;99.90;;;;;;5045380;28;20029;-68
2022/07/01 00:33:17;;;;;;;5.90;1.52;;;13.40;99.90;;;;;;5043971;28;20045;-68
2022/07/01 00:35:43;;;;;;;7.30;1.83;;;13.40;99.90;;;;;;5040147;28;20056;-68
2022/07/01 00:38:09;;;;;;;7.60;2.30;;;13.40;99.90;;;;;;5036242;28;20038;-68
2022/07/01 00:40:35;;;;;;;7.28;1.63;;;13.40;99.90;;;;;;5051770;28;20033;-67
2022/07/01 00:43:01;;;;;;;7.47;1.67;;;13.40;99.90;;;;;;5041364;28;20048;-67
2022/07/01 00:45:26;;;;;;;7.05;1.55;;;13.40;99.90;;;;;;5039158;28;20025;-67
2022/07/01 00:47:52;;;;;;;13.50;1.80;;;13.40;99.90;;;;;;5037306;28;20505;-67
2022/07/01 00:50:18;;;;;;;6.88;1.75;;;13.40;99.90;;;;;;5040769;28;20048;-67
2022/07/01 00:52:45;;;;;;;8.15;1.67;;;13.40;99.90;;;;;;5051491;28;20537;-68
2022/07/01 00:55:12;;;;;;;7.93;2.20;;;13.40;99.90;;;;;;5053253;28;20505;-69
2022/07/01 00:57:40;;;;;;;5.90;1.70;;;13.30;99.90;;;;;;5042424;28;20132;-68
2022/07/01 01:00:10;;;;;;;9.38;2.08;;;13.20;99.90;;;;;;5040245;28;20043;-69
2022/07/01 01:02:37;;;;;;;5.80;2.00;;;13.20;99.90;;;;;;5046771;28;20029;-69
2022/07/01 01:05:04;;;;;;;7.13;2.05;;;13.00;99.90;;;;;;5047053;28;20497;-68
2022/07/01 01:07:31;;;;;;;9.00;2.03;;;12.90;99.90;;;;;;5037840;28;20086;-69
2022/07/01 01:09:59;;;;;;;7.88;2.08;;;12.80;99.90;;;;;;5041358;28;20108;-69
2022/07/01 01:12:25;;;;;;;8.80;2.15;;;12.70;99.90;;;;;;5043225;28;20029;-68
2022/07/01 01:14:52;;;;;;;5.45;1.83;;;12.70;99.90;;;;;;5048302;28;20029;-69
2022/07/01 01:17:18;;;;;;;6.60;1.90;;;12.70;99.90;;;;;;5043687;28;20049;-69
2022/07/01 01:19:44;;;;;;;9.70;2.05;;;12.80;99.90;;;;;;5043115;28;20577;-68
2022/07/01 01:22:14;;;;;;;10.20;2.35;;;12.90;99.90;;;;;;5043967;28;20041;-69
2022/07/01 01:24:39;;;;;;;11.88;2.13;;;12.90;99.90;;;;;;5057238;28;20116;-69
2022/07/01 01:27:06;;;;;;;7.97;1.70;;;13.00;99.90;;;;;;5037564;28;20171;-69
2022/07/01 01:29:32;;;;;;;8.02;1.50;;;13.10;99.90;;;;;;5044027;28;20107;-68
2022/07/01 01:31:58;;;;;;;7.70;1.85;;;13.20;99.90;;;;;;5040972;28;20549;-68
2022/07/01 01:34:24;;;;;;;6.82;1.50;;;13.30;99.90;;;;;;5047882;28;20033;-68
2022/07/01 01:36:50;;;;;;;7.05;1.55;;;13.20;99.90;;;;;;5035840;28;20044;-68
2022/07/01 01:39:16;;;;;;;8.75;1.63;;;13.10;99.90;;;;;;5048529;28;20028;-68
2022/07/01 01:41:42;;;;;;;6.05;1.50;;;13.00;99.90;;;;;;5051806;28;20076;-69
2022/07/01 01:44:07;;;;;;;6.88;1.65;;;12.90;99.90;;;;;;5051972;28;20029;-69
2022/07/01 01:46:34;;;;;;;4.85;1.58;;;12.80;99.90;;;;;;5047896;28;20469;-68
2022/07/01 01:49:00;;;;;;;6.18;1.73;;;12.80;99.90;;;;;;5052059;28;20029;-69
2022/07/01 01:51:27;;;;;;;6.38;1.30;;;12.70;99.90;;;;;;5038294;28;20073;-69
2022/07/01 01:53:53;;;;;;;7.07;1.50;;;12.70;99.90;;;;;;5047971;28;20463;-69
2022/07/01 01:56:18;;;;;;;4.50;1.30;;;12.70;99.90;;;;;;5044474;28;20058;-69
2022/07/01 01:58:44;;;;;;;6.03;1.50;;;12.70;99.90;;;;;;5047753;28;20102;-68
2022/07/01 02:01:11;;;;;;;8.30;1.75;;;12.80;99.90;;;;;;5043565;28;20456;-69
2022/07/01 02:03:39;;;;;;;3.97;1.58;;;12.80;99.90;;;;;;5051508;28;20041;-69
2022/07/01 02:06:06;;;;;;;5.93;1.60;;;12.80;99.90;;;;;;5037185;28;20154;-69
2022/07/01 02:08:32;;;;;;;4.47;1.23;;;12.80;99.90;;;;;;5047820;28;20039;-69
2022/07/01 02:10:58;;;;;;;4.22;1.10;;;12.70;99.90;;;;;;5047266;28;20033;-69
2022/07/01 02:13:24;;;;;;;6.00;1.30;;;12.70;99.90;;;;;;5056430;28;20028;-68
2022/07/01 02:15:50;;;;;;;4.22;1.20;;;12.70;99.90;;;;;;5046575;28;20036;-68
2022/07/01 02:18:16;;;;;;;5.05;1.10;;;12.70;99.90;;;;;;5044542;28;20052;-68
2022/07/01 02:20:42;;;;;;;6.47;1.20;;;12.60;99.90;;;;;;5048054;28;20028;-68
2022/07/01 02:23:08;;;;;;;8.80;1.40;;;12.60;99.90;;;;;;5053470;28;20029;-68
2022/07/01 02:25:35;;;;;;;4.95;1.45;;;12.60;99.90;;;;;;5050683;28;20107;-69
2022/07/01 02:28:01;;;;;;;4.78;1.30;;;12.50;99.90;;;;;;5047791;28;20033;-68
2022/07/01 02:30:27;;;;;;;5.35;1.42;;;12.50;99.90;;;;;;5049994;28;20400;-68
2022/07/01 02:32:53;;;;;;;5.32;1.42;;;12.50;99.90;;;;;;5036780;28;20036;-68
2022/07/01 02:35:19;;;;;;;6.93;1.30;;;12.40;99.90;;;;;;5052081;28;20044;-68
2022/07/01 02:37:45;;;;;;;7.80;1.85;;;12.40;99.90;;;;;;5041209;28;20115;-67
2022/07/01 02:40:13;;;;;;;5.35;1.60;;;12.30;99.90;;;;;;5048264;28;20036;-67
2022/07/01 02:42:39;;;;;;;5.07;1.25;;;12.30;99.90;;;;;;5059321;28;20708;-68
2022/07/01 02:45:06;;;;;;;4.30;1.40;;;12.30;99.90;;;;;;5048292;28;20056;-69
2022/07/01 02:47:36;;;;;;;8.93;1.60;;;12.30;99.90;;;;;;5037765;28;20501;-66
2022/07/01 02:50:09;;;;;;;6.43;1.60;;;12.20;99.90;;;;;;5051308;28;20037;-68
2022/07/01 02:52:37;;;;;;;4.65;1.48;;;12.10;99.90;;;;;;5054751;28;20036;-67
2022/07/01 02:55:05;;;;;;;6.03;1.90;;;12.00;99.90;;;;;;5046128;28;20051;-67
2022/07/01 02:57:30;;;;;;;4.88;1.98;;;12.00;99.90;;;;;;5060524;28;20048;-69
2022/07/01 02:59:56;;;;;;;6.32;2.05;;;12.00;99.90;;;;;;5046995;28;20029;-67
2022/07/01 03:02:23;;;;;;;9.25;2.10;;;12.00;99.90;;;;;;5039027;28;20132;-67
2022/07/01 03:04:50;;;;;;;6.85;2.30;;;11.90;99.90;;;;;;5047951;28;20029;-68
2022/07/01 03:07:16;;;;;;;6.90;2.05;;;12.00;99.90;;;;;;5038550;28;20076;-67
2022/07/01 03:09:43;;;;;;;7.65;2.40;;;11.90;99.90;;;;;;5047031;28;20476;-67
2022/07/01 03:12:24;;;;;;;7.68;2.08;;;11.90;99.90;;;;;;5043461;28;20536;-67
2022/07/01 03:15:02;;;;;;;7.50;2.13;;;11.90;99.90;;;;;;5062013;28;20032;-68
2022/07/01 03:17:30;;;;;;;8.20;2.30;;;12.00;99.90;;;;;;5051381;28;20047;-67
2022/07/01 03:19:56;;;;;;;7.05;2.55;;;12.00;99.90;;;;;;5046985;28;20043;-67
2022/07/01 03:22:24;;;;;;;6.53;2.50;;;12.00;99.90;;;;;;5046900;28;20033;-68
2022/07/01 03:24:51;;;;;;;8.30;2.22;;;11.80;99.90;;;;;;5047507;28;20395;-68
2022/07/01 03:27:17;;;;;;;7.55;2.30;;;11.70;99.90;;;;;;5045275;28;20036;-68
2022/07/01 03:29:43;;;;;;;6.15;2.47;;;11.60;99.90;;;;;;5035809;28;20033;-68
2022/07/01 03:32:10;;;;;;;7.97;2.25;;;11.50;99.90;;;;;;5051009;28;20033;-67
2022/07/01 03:34:41;;;;;;;6.60;2.05;;;11.50;99.90;;;;;;5046421;28;20036;-67
2022/07/01 03:37:08;;;;;;;6.97;2.40;;;11.60;99.90;;;;;;5049855;28;20053;-67
2022/07/01 03:39:35;;;;;;;10.00;2.75;;;11.60;99.90;;;;;;5043387;28;20029;-68
2022/07/01 03:42:03;;;;;;;8.85;2.72;;;11.80;99.90;;;;;;5057286;28;20044;-68
2022/07/01 03:44:28;;;;;;;4.28;2.20;;;11.80;99.90;;;;;;5055001;28;20515;-67
2022/07/01 03:46:55;;;;;;;7.53;2.17;;;11.90;99.90;;;;;;5059201;28;20132;-69
2022/07/01 03:49:21;;;;;;;6.70;1.85;;;12.00;99.90;;;;;;5044438;28;20380;-68
2022/07/01 03:51:46;;;;;;;6.30;2.28;;;12.00;99.90;;;;;;5047927;28;20484;-68
2022/07/01 03:54:32;;;;;;;7.45;2.13;;;12.10;99.90;;;;;;5051124;28;20037;-67
2022/07/01 03:57:00;;;;;;;6.63;2.28;;;12.20;99.90;;;;;;5043465;28;20068;-67
2022/07/01 03:59:27;;;;;;;5.55;2.10;;;12.20;99.90;;;;;;5037832;28;20040;-67
2022/07/01 04:01:56;;;;;;;6.78;2.13;;;12.20;99.90;;;;;;5040507;28;20061;-67
2022/07/01 04:04:26;;;;;;;9.40;2.00;;;12.20;99.90;;;;;;5041347;28;20088;-67
2022/07/01 04:06:53;;;;;;;5.53;2.33;;;12.20;99.90;;;;;;5042846;28;20076;-68
2022/07/01 04:09:20;;;;;;;6.10;2.50;;;12.20;99.90;;;;;;5038520;28;20037;-67
2022/07/01 04:11:47;;;;;;;7.68;2.95;;;12.20;99.90;;;;;;5053342;28;20131;-67
2022/07/01 04:14:13;;;;;;;8.52;2.40;;;12.20;99.90;;;;;;5048507;28;20033;-68
2022/07/01 04:16:39;;;;;;;6.72;2.17;;;12.20;99.90;;;;;;5048606;28;20048;-67
2022/07/01 04:19:05;;;;;;;6.78;2.10;;;12.20;99.90;;;;;;5037636;28;20060;-67
2022/07/01 04:24:15;;;;;;;6.97;2.20;;;12.20;99.90;;;;;;5048280;28;20601;-68
2022/07/01 04:26:43;;;;;;;7.38;2.42;;;12.20;99.90;;;;;;5050168;28;20033;-68
2022/07/01 04:29:09;;;;;;;6.57;2.30;;;12.30;99.90;;;;;;5045630;28;20029;-68
2022/07/01 04:31:36;;;;;;;7.45;2.80;;;12.30;99.90;;;;;;5042254;28;20126;-67
2022/07/01 04:34:02;;;;;;;5.80;2.47;;;12.30;99.90;;;;;;5047573;28;20029;-68
2022/07/01 04:36:28;;;;;;;5.63;1.55;;;12.30;99.90;;;;;;5053961;28;20731;-68
2022/07/01 04:38:53;;;;;;;8.40;1.90;;;12.30;99.90;;;;;;5043587;28;20040;-68
2022/07/01 04:44:04;;;;;;;6.20;1.67;;;12.20;99.90;;;;;;5042870;28;20478;-68
2022/07/01 04:46:30;;;;;;;5.65;2.30;;;12.20;99.90;;;;;;5054088;28;20615;-68
2022/07/01 04:48:55;;;;;;;6.55;2.08;;;12.20;99.90;;;;;;5041984;28;20157;-68
2022/07/01 04:51:21;;;;;;;5.00;1.90;;;12.30;99.90;;;;;;5049796;28;20037;-69
2022/07/01 04:53:48;;;;;;;5.22;1.45;;;12.30;99.90;;;;;;5047247;28;20083;-68
2022/07/01 04:56:13;;;;;;;6.88;1.83;;;12.30;99.90;;;;;;5050170;28;20048;-68
2022/07/01 04:58:39;;;;;;;4.38;1.70;;;12.30;99.90;;;;;;5044629;28;20029;-68
2022/07/01 05:01:05;;;;;;;7.90;2.00;;;12.30;99.90;;;;;;5051696;28;20061;-68
2022/07/01 05:03:32;;;;;;;4.70;1.50;;;12.40;99.90;;;;;;5048470;28;20055;-68
2022/07/01 05:05:57;;;;;;;5.28;1.75;;;12.40;99.90;;;;;;5055332;28;20025;-68
2022/07/01 05:08:23;;;;;;;3.78;1.50;;;12.40;99.90;;;;;;5043878;28;20075;-68
2022/07/01 05:10:49;;;;;;;6.15;1.83;;;12.40;99.90;;;;;;5057232;28;20082;-67
2022/07/01 05:13:14;;;;;;;6.70;2.38;;;12.40;99.90;;;;;;5052262;28;20142;-67
2022/07/01 05:15:40;;;;;;;4.60;1.50;;;12.50;99.90;;;;;;5067449;28;20028;-68
2022/07/01 05:23:35;;;;;;;6.53;1.75;;;12.70;99.90;;;;;;5036482;28;20044;-68
2022/07/01 05:26:01;;;;;;;7.13;1.90;;;12.80;99.90;;;;;;5049757;28;20373;-69
2022/07/01 05:28:27;;;;;;;5.03;1.58;;;12.80;99.90;;;;;;5043194;28;20583;-68
2022/07/01 05:30:53;;;;;;;6.78;1.80;;;12.90;99.90;;;;;;5047123;28;20037;-67
2022/07/01 05:33:21;;;;;;;5.78;2.08;;;12.90;99.90;;;;;;5053506;28;20068;-67
2022/07/01 05:35:47;;;;;;;5.38;1.80;;;13.00;99.90;;;;;;5035209;28;20037;-67
2022/07/01 05:38:12;;;;;;;6.75;2.20;;;13.00;99.90;;;;;;5045717;28;20044;-68
2022/07/01 05:40:38;;;;;;;5.03;1.58;;;13.00;99.90;;;;;;5044962;28;20039;-67
2022/07/01 05:43:04;;;;;;;7.13;1.92;;;13.00;99.90;;;;;;5049872;28;20033;-68
2022/07/01 05:45:29;;;;;;;7.60;1.60;;;13.00;99.90;;;;;;5046567;28;20048;-68
2022/07/01 05:47:56;;;;;;;6.13;1.75;;;13.10;99.90;;;;;;5047156;28;20106;-67
2022/07/01 05:50:22;;;;;;;4.43;1.98;;;13.10;99.90;;;;;;5047111;28;20044;-67
2022/07/01 05:52:48;;;;;;;10.90;2.25;;;13.10;99.90;;;;;;5047162;28;20024;-68
2022/07/01 05:55:14;;;;;;;5.82;2.28;;;13.10;99.90;;;;;;5046473;28;20060;-67
2022/07/01 05:57:40;;;;;;;7.05;2.40;;;13.10;99.90;;;;;;5042190;28;20032;-68
2022/07/01 06:00:06;;;;;;;6.13;1.85;;;13.10;99.90;;;;;;5036567;28;20033;-67
2022/07/01 06:02:32;;;;;;;4.85;1.67;;;13.10;99.90;;;;;;5039961;28;20033;-68
2022/07/01 06:04:59;;;;;;;6.00;2.03;;;13.20;99.90;;;;;;5047701;28;20028;-66
2022/07/01 06:07:25;;;;;;;7.50;1.88;;;13.20;99.90;;;;;;5037524;28;20111;-67
2022/07/01 06:09:50;;;;;;;5.57;1.75;;;13.30;99.90;;;;;;5040150;28;20572;-68
2022/07/01 06:12:16;;;;;;;6.57;1.90;;;13.40;99.90;;;;;;5040704;28;20066;-68
2022/07/01 06:14:42;;;;;;;5.43;1.92;;;13.50;99.90;;;;;;5037211;28;20368;-68
2022/07/01 06:17:09;;;;;;;6.70;1.85;;;13.50;99.90;;;;;;5038839;28;20044;-68
2022/07/01 06:19:35;;;;;;;4.47;1.73;;;13.60;99.90;;;;;;5035051;28;20039;-67
2022/07/01 06:22:00;;;;;;;4.60;1.50;;;13.70;99.90;;;;;;5043334;28;20702;-68
2022/07/01 06:24:26;;;;;;;5.05;1.60;;;13.80;99.90;;;;;;5044713;28;20501;-68
2022/07/01 06:26:52;;;;;;;6.68;1.70;;;13.80;99.90;;;;;;5041497;28;20041;-68
2022/07/01 06:29:17;;;;;;;7.03;1.83;;;13.90;99.90;;;;;;5042864;28;20029;-67
2022/07/01 06:31:43;;;;;;;6.10;1.58;;;14.00;99.90;;;;;;5041453;28;20055;-68
2022/07/01 06:34:08;;;;;;;7.70;1.80;;;14.10;99.90;;;;;;5044757;28;20033;-68
2022/07/01 06:36:34;;;;;;;11.10;1.70;;;14.20;99.90;;;;;;5046901;28;20801;-68
2022/07/01 06:39:00;;;;;;;4.95;1.73;;;14.20;99.90;;;;;;5046284;28;20608;-68
2022/07/01 06:41:26;;;;;;;7.60;1.80;;;14.30;99.90;;;;;;5043350;28;20032;-68
2022/07/01 06:43:55;;;;;;;3.97;1.30;;;14.40;99.90;;;;;;5047754;28;20025;-68
2022/07/01 06:46:21;;;;;;;5.50;1.48;;;14.40;99.90;;;;;;5045352;28;20064;-68
2022/07/01 06:48:47;;;;;;;4.25;1.40;;;14.50;99.90;;;;;;5052987;28;20534;-68
2022/07/01 06:51:13;;;;;;;7.18;1.65;;;14.60;99.90;;;;;;5046978;28;20033;-67
2022/07/01 06:53:39;;;;;;;6.72;1.92;;;14.60;99.90;;;;;;5048383;28;20040;-68
2022/07/01 06:56:05;;;;;;;6.35;1.42;;;14.60;99.90;;;;;;5054206;28;20033;-68
2022/07/01 06:58:31;;;;;;;4.70;1.67;;;14.70;99.90;;;;;;5051105;28;20040;-68
2022/07/01 07:00:56;;;;;;;3.30;1.13;;;14.70;99.90;;;;;;5051640;28;20060;-67
2022/07/01 07:03:22;;;;;;;3.83;1.40;;;14.90;99.90;;;;;;5052196;28;20031;-68
2022/07/01 07:05:48;;;;;;;4.40;1.50;;;14.90;99.90;;;;;;5050127;28;20057;-68
2022/07/01 07:08:13;;;;;;;4.53;1.60;;;14.90;99.90;;;;;;5050037;28;20082;-68
2022/07/01 07:10:39;;;;;;;6.00;1.10;;;15.00;99.90;;;;;;5039452;28;20567;-66
2022/07/01 07:13:05;;;;;;;3.65;1.40;;;15.10;99.90;;;;;;5038745;28;20041;-67
2022/07/01 07:15:31;;;;;;;5.28;1.40;;;15.10;99.90;;;;;;5043218;28;20044;-68
2022/07/01 07:17:57;;;;;;;4.82;1.23;;;15.20;99.90;;;;;;5038269;28;20033;-66
2022/07/01 07:20:25;;;;;;;4.88;1.25;;;15.30;99.90;;;;;;5042933;28;20037;-67
2022/07/01 07:22:50;;;;;;;4.00;1.30;;;15.40;99.90;;;;;;5047757;28;20120;-67
2022/07/01 07:25:16;;;;;;;3.72;0.90;;;15.50;99.90;;;;;;5048059;28;20096;-67
2022/07/01 07:27:45;;;;;;;5.40;0.98;;;15.60;99.90;;;;;;5046601;28;20632;-69
2022/07/01 07:30:12;;;;;;;5.97;1.30;;;15.60;99.90;;;;;;5047668;28;20041;-68
2022/07/01 07:32:39;;;;;;;3.25;1.10;;;15.60;99.90;;;;;;5049787;28;20029;-66
2022/07/01 07:35:06;;;;;;;3.47;1.20;;;15.70;99.90;;;;;;5049577;28;20024;-67
2022/07/01 07:37:32;;;;;;;5.93;1.23;;;15.70;99.90;;;;;;5049691;28;20049;-66
2022/07/01 07:40:03;;;;;;;4.70;1.20;;;15.80;99.90;;;;;;5049418;28;20045;-67
2022/07/01 07:42:29;;;;;;;3.38;1.00;;;15.70;99.90;;;;;;5030110;28;20365;-68
2022/07/01 07:44:55;;;;;;;3.83;1.10;;;15.70;99.90;;;;;;5041221;28;20043;-66
2022/07/01 07:47:20;;;;;;;4.20;1.10;;;15.70;99.90;;;;;;5047888;28;20742;-67
2022/07/01 07:49:46;;;;;;;5.18;1.23;;;15.70;99.90;;;;;;5049344;28;20028;-67
2022/07/01 07:52:12;;;;;;;4.82;1.10;;;15.80;99.90;;;;;;5048729;28;20080;-66
2022/07/01 07:54:38;;;;;;;4.63;1.30;;;15.90;99.90;;;;;;5049364;28;20593;-66
2022/07/01 07:57:05;;;;;;;5.93;1.25;;;16.10;99.90;;;;;;5045922;28;20037;-67
2022/07/01 07:59:30;;;;;;;5.05;1.20;;;16.20;99.90;;;;;;5037577;28;20124;-67
2022/07/01 08:01:56;;;;;;;4.18;1.02;;;16.30;99.90;;;;;;5045155;28;20079;-67
2022/07/01 08:04:22;;;;;;;5.72;1.35;;;16.30;99.90;;;;;;5043832;28;20033;-68
2022/07/01 08:06:48;;;;;;;4.55;1.10;;;16.20;99.90;;;;;;5040334;28;20044;-67
2022/07/01 08:09:13;;;;;;;5.63;1.30;;;16.10;99.90;;;;;;5048142;28;20552;-67
2022/07/01 08:11:39;;;;;;;5.35;1.25;;;16.10;99.90;;;;;;5033640;28;20033;-69
2022/07/01 08:14:05;;;;;;;4.53;1.45;;;16.10;99.90;;;;;;5046772;28;20376;-69
2022/07/01 08:16:31;;;;;;;5.07;1.10;;;16.20;99.90;;;;;;5040040;28;20052;-69
2022/07/01 08:18:56;;;;;;;3.60;1.02;;;16.40;99.90;;;;;;5029196;28;20399;-69
2022/07/01 08:21:22;;;;;;;2.65;0.98;;;16.60;99.90;;;;;;5031073;28;20041;-70
2022/07/01 08:23:48;;;;;;;4.07;1.08;;;16.70;99.90;;;;;;5028761;28;20120;-69
2022/07/01 08:26:15;;;;;;;3.30;0.90;;;16.70;99.90;;;;;;5033774;28;20402;-70
2022/07/01 08:28:41;;;;;;;6.03;1.00;;;16.80;99.90;;;;;;5048270;28;20040;-70
2022/07/01 08:31:06;;;;;;;5.95;1.20;;;17.00;99.90;;;;;;5044882;28;20027;-71
2022/07/01 08:33:32;;;;;;;4.95;0.98;;;17.20;99.90;;;;;;5048466;28;20590;-70
2022/07/01 08:35:58;;;;;;;3.97;0.82;;;17.50;99.90;;;;;;5041248;28;20030;-70
2022/07/01 08:38:23;;;;;;;3.85;1.10;;;17.50;99.70;;;;;;5028480;28;20427;-70
2022/07/01 08:40:50;;;;;;;4.50;0.82;;;17.50;99.90;;;;;;5036234;28;20041;-69
2022/07/01 08:43:15;;;;;;;2.45;0.70;;;17.40;99.90;;;;;;5033780;28;20056;-70
2022/07/01 08:45:42;;;;;;;2.13;0.73;;;17.50;99.20;;;;;;5048436;28;20214;-70
2022/07/01 08:48:08;;;;;;;4.53;0.88;;;17.50;99.40;;;;;;5032480;28;20172;-69
2022/07/01 08:50:38;;;;;;;5.45;1.00;;;17.60;99.30;;;;;;5044965;28;20028;-70
2022/07/01 08:53:05;;;;;;;6.63;1.08;;;17.60;99.90;;;;;;5036237;28;20387;-72
2022/07/01 08:55:31;;;;;;;4.00;0.93;;;17.70;99.90;;;;;;5028431;28;20034;-70
2022/07/01 08:57:58;;;;;;;5.90;1.13;;;17.70;99.90;;;;;;5039013;28;20037;-66
2022/07/01 09:00:30;;;;;;;2.58;0.70;;;17.70;99.90;;;;;;5033496;28;20033;-66
2022/07/01 09:03:01;;;;;;;5.63;1.30;;;17.80;99.90;;;;;;5031817;28;20035;-69
2022/07/01 09:05:28;;;;;;;4.03;0.90;;;17.80;99.90;;;;;;5039062;28;20029;-68
2022/07/01 09:08:03;;;;;;;4.45;1.02;;;17.80;97.70;;;;;;5038030;28;20033;-66
2022/07/01 09:10:34;;;;;;;3.58;0.88;;;17.80;96.80;;;;;;5028290;28;20029;-66
2022/07/01 09:13:08;;;;;;;3.92;1.13;;;17.80;96.20;;;;;;5044661;28;20519;-67
2022/07/01 09:15:35;;;;;;;5.00;1.00;;;17.90;96.30;;;;;;5042269;28;20029;-67
2022/07/01 09:18:04;;;;;;;4.28;0.85;;;18.00;97.30;;;;;;5034636;28;20045;-67
2022/07/01 09:20:32;;;;;;;4.25;0.80;;;18.10;99.90;;;;;;5039967;28;20560;-69
2022/07/01 09:22:58;;;;;;;3.33;0.95;;;18.20;98.40;;;;;;5039622;28;20501;-71
2022/07/01 09:25:32;;;;;;;3.58;1.00;;;18.20;98.10;;;;;;5028086;28;20780;-69
2022/07/01 09:28:09;;;;;;;5.80;1.40;;;18.20;98.00;;;;;;5037195;28;20025;-72
2022/07/01 09:30:36;;;;;;;3.35;0.90;;;18.20;98.60;;;;;;5039178;28;20398;-71
2022/07/01 09:33:16;;;;;;;3.22;0.80;;;18.20;98.90;;;;;;5036428;28;20033;-68
2022/07/01 09:35:42;;;;;;;;;;;18.20;97.50;;;;;;5030141;28;20052;-70
2022/07/01 09:38:14;;;;;;;7.07;1.08;;;18.20;98.60;;;;;;5043083;28;19928;-71
2022/07/01 09:41:03;;;;;;;6.28;1.10;;;18.40;99.50;;;;;;5026951;28;20049;-70
2022/07/01 09:43:33;;;;;;;;;;;18.50;98.90;;;;;;5031987;28;20033;-70
2022/07/01 09:46:05;;;;;;;5.88;1.20;;;18.50;98.40;;;;;;5029669;28;19920;-70
2022/07/01 09:48:34;;;;;;;5.72;1.10;;;18.50;99.50;;;;;;5030703;28;20533;-69
2022/07/01 09:51:07;;;;;;;5.45;1.35;;;18.60;99.90;;;;;;5041059;28;20060;-70
2022/07/01 09:53:33;;;;;;;12.65;3.70;;;18.70;99.90;;;;;;5056615;28;20043;-70
2022/07/01 09:55:59;;;;;;;7.07;1.55;;;18.80;99.90;;;;;;5066589;28;20033;-71
2022/07/01 09:58:25;;;;;;;6.70;1.13;;;18.90;99.90;;;;;;5050679;28;20055;-70
2022/07/01 10:00:55;;;;;;;5.72;1.30;;;19.10;99.40;;;;;;5047560;28;20668;-70
2022/07/01 10:03:22;;;;;;;7.82;1.27;;;19.20;99.90;;;;;;5040895;28;20026;-69
2022/07/01 10:06:02;;;;;;;6.43;1.10;;;19.20;99.00;;;;;;5028179;28;20033;-70
2022/07/01 10:08:52;;;;;;;7.95;1.88;;;19.10;99.30;;;;;;5033569;28;20488;-69
2022/07/01 10:11:43;;;;;;;5.72;1.30;;;19.10;98.20;;;;;;5038366;28;20110;-72
2022/07/01 10:14:11;;;;;;;8.93;1.23;;;19.00;99.90;;;;;;5045919;28;20797;-72
2022/07/01 10:16:40;;;;;;;6.53;1.60;;;19.10;99.90;;;;;;5047306;28;20456;-70
2022/07/01 10:19:25;;;;;;;10.40;1.67;;;19.30;98.90;;;;;;5047378;28;20029;-70
2022/07/01 10:21:56;;;;;;;6.85;1.50;;;19.30;99.30;;;;;;5037009;28;20037;-70
2022/07/01 10:24:23;;;;;;;5.22;1.40;;;19.10;98.00;;;;;;5047672;28;20041;-69
2022/07/01 10:26:49;;;;;;;6.32;2.45;;;19.00;98.50;;;;;;5031092;28;20030;-69
2022/07/01 10:29:35;;;;;;;7.65;1.20;;;19.00;99.20;;;;;;5027755;28;20082;-70
2022/07/01 10:32:29;;;;;;;7.93;1.63;;;18.70;99.10;;;;;;5031377;28;20086;-71
2022/07/01 10:35:06;;;;;;;4.63;1.05;;;18.70;99.90;;;;;;5032341;28;20112;-69
2022/07/01 10:37:31;;;;;;;8.20;1.30;;;18.80;98.10;;;;;;5031286;28;20111;-71
2022/07/01 10:40:02;;;;;;;9.25;1.10;;;18.70;99.90;;;;;;5038529;28;20045;-70
2022/07/01 10:42:36;;;;;;;6.95;1.17;;;18.80;98.70;;;;;;5045889;28;20105;-70
2022/07/01 10:45:10;;;;;;;5.63;1.10;;;18.90;98.90;;;;;;5031206;28;20033;-70
2022/07/01 10:47:37;;;;;;;7.50;1.55;;;19.00;98.70;;;;;;5031366;28;20553;-68
2022/07/01 10:50:07;;;;;;;6.50;1.30;;;18.80;98.40;;;;;;5031558;28;20483;-69
2022/07/01 10:52:34;;;;;;;6.10;1.35;;;18.90;99.30;;;;;;5031489;28;20037;-70
2022/07/01 10:55:01;;;;;;;6.45;1.10;;;19.10;98.90;;;;;;5031058;28;20109;-72
2022/07/01 10:57:34;;;;;;;8.40;1.40;;;19.10;99.60;;;;;;5031176;28;20025;-71
2022/07/01 11:00:00;;;;;;;6.28;1.27;;;19.20;98.80;;;;;;5031723;28;20048;-70
2022/07/01 11:02:36;;;;;;;6.80;1.30;;;19.30;98.30;;;;;;5036229;28;20033;-69
2022/07/01 11:05:09;;;;;;;7.50;1.08;;;19.30;97.00;;;;;;5030991;28;20136;-71
2022/07/01 11:07:38;;;;;;;7.63;1.17;;;19.40;97.70;;;;;;5030961;28;20124;-70
2022/07/01 11:10:07;;;;;;;8.73;1.45;;;19.60;97.70;;;;;;5030994;28;20177;-70
2022/07/01 11:12:33;;;;;;;4.43;1.02;;;19.90;97.20;;;;;;5042390;28;20040;-71
2022/07/01 11:15:05;;;;;;;7.82;1.25;;;20.10;95.20;;;;;;5050816;28;20033;-71
2022/07/01 11:17:32;;;;;;;5.88;1.13;;;20.40;94.80;;;;;;5035271;28;20041;-70
2022/07/01 11:19:59;;;;;;;7.13;1.00;;;21.00;92.80;;;;;;5030532;28;20029;-71
2022/07/01 11:22:26;;;;;;;8.80;1.38;;;21.90;92.80;;;;;;5030679;28;20037;-69
2022/07/01 11:24:55;;;;;;;4.78;1.05;;;22.10;88.60;;;;;;5030531;28;20107;-69
2022/07/01 11:27:22;;;;;;;7.95;1.30;;;21.60;88.90;;;;;;5030393;28;20037;-70
2022/07/01 11:29:55;;;;;;;6.32;1.25;;;21.60;93.50;;;;;;5030633;28;20037;-70
2022/07/01 11:32:48;;;;;;;7.57;1.60;;;21.70;90.30;;;;;;5030488;28;20048;-70
2022/07/01 11:40:54;;;;;;;6.90;1.10;;;20.80;95.60;;;;;;5046721;28;20063;-69
2022/07/01 11:43:25;;;;;;;6.70;1.30;;;20.70;94.70;;;;;;5030259;28;20056;-71
2022/07/01 11:45:52;;;;;;;8.10;1.58;;;20.60;94.90;;;;;;5030102;28;20029;-72
2022/07/01 11:48:40;;;;;;;5.25;1.50;;;20.50;95.90;;;;;;5030250;28;20682;-70
2022/07/01 11:51:15;;;;;;;6.07;1.38;;;20.50;94.50;;;;;;5030582;28;20094;-70
2022/07/01 11:53:43;;;;;;;7.85;1.17;;;20.30;94.30;;;;;;5028902;28;20124;-71
2022/07/01 11:56:09;;;;;;;13.27;1.65;;;20.00;96.70;;;;;;5030133;28;20094;-71
2022/07/01 11:58:52;;;;;;;7.03;1.60;;;20.00;97.60;;;;;;5030024;28;20029;-69
2022/07/01 12:01:31;;;;;;;5.40;1.00;;;20.00;96.80;;;;;;5030029;28;20028;-71
2022/07/01 12:03:59;;;;;;;8.55;1.50;;;20.20;97.80;;;;;;5029993;28;20036;-69
2022/07/01 12:06:26;;;;;;;6.72;1.50;;;20.20;94.90;;;;;;5029962;28;20650;-71
2022/07/01 12:08:53;;;;;;;5.60;1.20;;;20.10;95.60;;;;;;5030401;28;20035;-70
2022/07/01 12:11:21;;;;;;;6.72;1.20;;;20.20;95.20;;;;;;5029665;28;20539;-71
2022/07/01 12:13:48;;;;;;;6.47;1.30;;;20.10;94.40;;;;;;5048867;28;20028;-70
2022/07/01 12:16:14;;;;;;;7.32;1.58;;;20.10;96.70;;;;;;5049384;28;20025;-70
2022/07/01 12:18:55;;;;;;;7.80;1.30;;;20.20;94.90;;;;;;5049547;28;20102;-69
2022/07/01 12:21:21;;;;;;;7.15;1.27;;;20.20;92.60;;;;;;5049424;28;20791;-71
2022/07/01 12:24:13;;;;;;;6.38;0.90;;;20.00;92.40;;;;;;5049307;28;20033;-70
2022/07/01 12:26:49;;;;;;;5.97;1.17;;;20.00;91.30;;;;;;5047281;28;20666;-70
2022/07/01 12:29:20;;;;;;;5.22;1.10;;;19.80;92.40;;;;;;5047528;28;20037;-70
2022/07/01 12:32:01;;;;;;;6.25;1.30;;;19.90;94.30;;;;;;5042778;28;20667;-70
2022/07/01 12:34:57;;;;;;;5.65;1.23;;;20.00;96.70;;;;;;5034491;28;20033;-72
2022/07/01 12:37:27;;;;;;;6.13;1.00;;;20.00;94.00;;;;;;5023429;28;20085;-70
2022/07/01 12:40:16;;;;;;;6.65;1.40;;;20.10;93.60;;;;;;5048708;28;20037;-70
2022/07/01 12:42:44;;;;;;;4.27;1.00;;;20.00;94.40;;;;;;5033412;28;20038;-70
2022/07/01 12:45:13;;;;;;;5.60;1.00;;;20.20;95.10;;;;;;5030030;28;20099;-70
2022/07/01 12:47:43;;;;;;;5.70;0.98;;;20.30;92.00;;;;;;5036011;28;20036;-71
2022/07/01 12:50:13;;;;;;;8.52;1.20;;;20.40;94.80;;;;;;5043853;28;20029;-69
2022/07/01 12:52:43;;;;;;;8.45;1.08;;;20.40;91.10;;;;;;5028498;28;20483;-69
2022/07/01 12:55:15;;;;;;;7.97;1.20;;;20.50;92.00;;;;;;5028549;28;20052;-70
2022/07/01 12:57:41;;;;;;;5.70;0.98;;;20.30;93.30;;;;;;5026941;28;20040;-71
2022/07/01 13:00:07;;;;;;;5.97;1.25;;;20.20;94.20;;;;;;5027671;28;20480;-70
2022/07/01 13:02:33;;;;;;;6.45;1.48;;;20.00;94.90;;;;;;5028553;28;20026;-70
2022/07/01 13:04:59;;;;;;;5.13;1.10;;;20.10;95.90;;;;;;5030041;28;20047;-70
2022/07/01 13:07:25;;;;;;;7.18;1.02;;;19.90;93.90;;;;;;5048656;28;20048;-70
2022/07/01 13:09:50;;;;;;;7.68;1.17;;;19.80;95.90;;;;;;5048391;28;20071;-71